createdAt,value
2024-01-22T05:06:35.363Z,102799.56
2024-01-22T10:59:23.464Z,102724.31
2024-01-22T11:05:34.422Z,102704.34
2024-01-22T11:11:42.465Z,102700.69
2024-01-22T11:17:52.970Z,102675.50
2024-01-22T11:24:16.902Z,102680.66
2024-01-22T11:30:30.664Z,102679.25
2024-01-22T11:36:57.964Z,102673.69
2024-01-22T11:43:03.543Z,102662.44
2024-01-22T11:49:12.294Z,102653.59
2024-01-22T11:55:16.428Z,102639.19
2024-01-22T12:01:22.114Z,102644.47
2024-01-22T12:07:33.400Z,102630.03
2024-01-22T12:13:42.375Z,102625.69
2024-01-22T12:19:47.102Z,102611.00
2024-01-22T12:25:50.209Z,102616.69
2024-01-22T12:32:07.182Z,102599.56
2024-01-22T12:38:14.603Z,102592.63
2024-01-22T12:44:16.932Z,102600.22
2024-01-22T12:50:19.777Z,102598.47
2024-01-22T12:56:22.798Z,102600.25
2024-01-22T13:02:26.219Z,102594.88
2024-01-22T13:08:33.915Z,102602.34
2024-01-22T13:14:38.550Z,102584.31
2024-01-22T13:20:41.473Z,102585.06
2024-01-22T13:26:45.207Z,102571.63
2024-01-22T13:32:49.361Z,102569.09
2024-01-22T13:38:55.134Z,102575.59
2024-01-22T13:44:59.425Z,102568.09
2024-01-22T13:51:03.178Z,102561.16
2024-01-22T13:57:06.004Z,102555.72
2024-01-22T14:03:10.410Z,102544.13
2024-01-22T14:09:13.190Z,102543.69
2024-01-22T14:15:17.460Z,102543.09
2024-01-22T14:21:20.300Z,102533.53
2024-01-22T14:27:23.515Z,102528.38
2024-01-22T14:33:29.749Z,102516.66
2024-01-22T14:39:32.041Z,102515.94
2024-01-22T14:45:35.534Z,102516.00
2024-01-22T14:51:37.901Z,102513.13
2024-01-22T14:57:40.914Z,102516.72
2024-01-22T15:03:44.956Z,102515.97
2024-01-22T15:09:50.088Z,102523.16
2024-01-22T15:15:54.551Z,102521.88
2024-01-22T15:22:02.381Z,102511.53
2024-01-22T15:28:08.564Z,102514.34
2024-01-22T15:34:15.166Z,102510.31
2024-01-22T15:40:21.213Z,102511.75
2024-01-22T15:46:24.610Z,102504.56
2024-01-22T15:52:27.984Z,102500.72
2024-01-22T15:58:32.361Z,102500.84
2024-01-22T16:04:36.911Z,102514.19
2024-01-22T16:10:39.188Z,102500.00
2024-01-22T16:16:41.532Z,102499.25
2024-01-22T16:22:44.249Z,102495.47
2024-01-22T16:28:47.760Z,102496.13
2024-01-22T16:34:51.610Z,102486.84
2024-01-22T16:40:54.114Z,102480.03
2024-01-22T16:46:57.441Z,102468.53
2024-01-22T16:53:01.562Z,102469.25
2024-01-22T16:59:04.766Z,102467.28
2024-01-22T17:05:08.493Z,102460.22
2024-01-22T17:11:12.998Z,102452.22
2024-01-22T17:17:16.387Z,102453.16
2024-01-22T17:23:19.285Z,102447.50
2024-01-22T17:29:23.187Z,102435.03
2024-01-22T17:35:30.289Z,102423.72
2024-01-22T17:41:34.961Z,102421.94
2024-01-22T17:47:37.294Z,102408.91
2024-01-22T17:53:40.038Z,102417.00
2024-01-22T17:59:44.984Z,102405.59
2024-01-22T18:05:48.963Z,102408.59
2024-01-22T18:11:52.763Z,102412.03
2024-01-22T18:17:55.185Z,102400.22
2024-01-22T18:23:58.162Z,102399.16
2024-01-22T18:30:00.451Z,102382.53
2024-01-22T18:36:06.112Z,102375.06
2024-01-22T18:42:08.465Z,102362.25
2024-01-22T18:48:11.057Z,102363.53
2024-01-22T18:54:15.004Z,102353.47
2024-01-22T19:00:19.421Z,102348.50
2024-01-22T19:06:22.342Z,102349.13
2024-01-22T19:12:25.092Z,102343.88
2024-01-22T19:18:27.354Z,102346.84
2024-01-22T19:24:31.423Z,102352.94
2024-01-22T19:30:34.090Z,102348.91
2024-01-22T19:36:36.260Z,102341.28
2024-01-22T19:42:39.794Z,102336.94
2024-01-22T19:48:41.946Z,102329.59
2024-01-22T19:54:45.299Z,102320.31
2024-01-22T20:00:47.538Z,102321.03
2024-01-22T20:06:50.720Z,102316.94
2024-01-22T20:12:53.375Z,102318.00
2024-01-22T20:18:55.724Z,102303.97
2024-01-22T20:24:58.154Z,102297.69
2024-01-22T20:31:00.684Z,102291.94
2024-01-22T20:37:04.663Z,102294.66
2024-01-22T20:43:06.832Z,102277.16
2024-01-22T20:49:09.037Z,102282.53
2024-01-22T20:55:11.161Z,102266.69
2024-01-22T21:01:19.121Z,102269.94
2024-01-22T21:07:26.860Z,102265.41
2024-01-22T21:13:31.077Z,102261.34
2024-01-22T21:19:36.010Z,102216.84
2024-01-22T21:25:38.359Z,102250.75
2024-01-22T21:31:40.839Z,102251.31
2024-01-22T21:37:43.006Z,102233.59
2024-01-22T21:43:45.112Z,102223.41
2024-01-22T21:49:48.809Z,102213.09
2024-01-22T21:55:51.204Z,102207.66
2024-01-22T22:01:56.220Z,102195.69
2024-01-22T22:07:58.364Z,102189.56
2024-01-22T22:14:00.517Z,102184.81
2024-01-22T22:20:02.999Z,102163.03
2024-01-22T22:26:05.468Z,102159.03
2024-01-22T22:32:07.912Z,102142.50
2024-01-22T22:38:10.045Z,102129.16
2024-01-22T22:44:12.409Z,102113.94
2024-01-22T22:50:15.727Z,102117.94
2024-01-22T22:56:18.246Z,102109.91
2024-01-22T23:02:20.688Z,102093.09
2024-01-22T23:08:24.127Z,102088.06
2024-01-22T23:14:29.114Z,102085.75
2024-01-22T23:20:31.447Z,102083.03
2024-01-22T23:26:33.498Z,102082.94
2024-01-22T23:32:37.937Z,102072.50
2024-01-22T23:38:40.033Z,102065.16
2024-01-22T23:44:42.076Z,102061.13
2024-01-22T23:50:44.664Z,102051.41
2024-01-22T23:56:49.456Z,102040.31
